Time;durP1;ratioP1;P1;durP2;ratioP2;P2;SDS_P1;SDS_P2;PMS_P1;PMS_P2;Temp;Humidity;BMP_temperature;BMP_pressure;BME280_temperature;BME280_humidity;BME280_pressure;Samples;Min_cycle;Max_cycle;Signal;HPM_P1;HPM_P2
2021/01/18 00:01:58;;;;;;;23.30;5.78;;;4.70;95.60;;;;;;4897063;29;20025;-72
2021/01/18 00:04:23;;;;;;;26.95;10.60;;;4.60;95.60;;;;;;4897247;29;20104;-72
2021/01/18 00:06:49;;;;;;;16.98;7.15;;;4.60;95.70;;;;;;4897564;29;20405;-72
2021/01/18 00:09:15;;;;;;;25.48;6.40;;;4.60;95.80;;;;;;4879738;29;20039;-72
2021/01/18 00:11:44;;;;;;;23.10;6.50;;;4.60;95.90;;;;;;4880721;29;20020;-72
2021/01/18 00:14:09;;;;;;;18.02;7.28;;;4.70;95.90;;;;;;4880343;29;20031;-72
2021/01/18 00:16:35;;;;;;;34.15;13.00;;;4.80;95.90;;;;;;4896933;29;20028;-72
2021/01/18 00:19:00;;;;;;;33.03;13.52;;;4.90;95.90;;;;;;4880485;29;20044;-72
2021/01/18 00:21:26;;;;;;;25.40;7.18;;;5.00;95.70;;;;;;4880176;29;20116;-72
2021/01/18 00:23:52;;;;;;;26.85;7.22;;;5.00;95.60;;;;;;4895864;29;20051;-71
2021/01/18 00:26:19;;;;;;;25.23;7.78;;;4.90;95.50;;;;;;4897171;29;20048;-72
2021/01/18 00:28:44;;;;;;;27.08;9.10;;;4.80;95.50;;;;;;4880488;29;20028;-72
2021/01/18 00:31:10;;;;;;;21.52;6.55;;;4.70;95.60;;;;;;4896211;29;20104;-72
2021/01/18 00:33:39;;;;;;;27.05;10.60;;;4.60;95.60;;;;;;4897318;29;20123;-73
2021/01/18 00:36:06;;;;;;;26.67;7.03;;;4.60;95.70;;;;;;4896251;29;20107;-73
2021/01/18 00:38:31;;;;;;;18.10;5.80;;;4.60;95.80;;;;;;4870136;29;20045;-72
2021/01/18 00:40:57;;;;;;;21.08;8.27;;;4.50;95.90;;;;;;4878430;29;20085;-73
2021/01/18 00:43:23;;;;;;;23.90;6.63;;;4.60;96.00;;;;;;4877548;29;20404;-73
2021/01/18 00:45:49;;;;;;;22.23;8.00;;;4.60;96.00;;;;;;4878512;29;20025;-73
2021/01/18 00:48:15;;;;;;;238.32;54.50;;;4.70;96.00;;;;;;4877944;29;20538;-72
2021/01/18 00:50:40;;;;;;;81.90;22.52;;;4.80;96.00;;;;;;4861367;29;20081;-73
2021/01/18 00:53:06;;;;;;;33.85;11.43;;;4.90;95.90;;;;;;4877728;29;20044;-73
2021/01/18 00:55:32;;;;;;;21.27;6.88;;;4.90;95.80;;;;;;4878485;29;20030;-73
2021/01/18 00:57:57;;;;;;;20.08;6.10;;;4.90;95.70;;;;;;4861090;29;20169;-73
2021/01/18 01:00:25;;;;;;;26.42;6.70;;;5.00;95.70;;;;;;4861155;29;20235;-73
2021/01/18 01:02:51;;;;;;;24.77;6.28;;;5.00;95.60;;;;;;4878263;29;20034;-72
2021/01/18 01:05:19;;;;;;;19.85;6.50;;;5.00;95.60;;;;;;4860653;29;20029;-73
2021/01/18 01:07:47;;;;;;;18.15;6.38;;;5.00;95.50;;;;;;4878264;29;20056;-73
2021/01/18 01:10:18;;;;;;;21.35;6.95;;;5.10;95.50;;;;;;4877853;29;20032;-72
2021/01/18 01:12:44;;;;;;;19.00;7.20;;;5.10;95.40;;;;;;4877641;29;20025;-73
2021/01/18 01:15:11;;;;;;;21.17;7.78;;;5.10;95.40;;;;;;4877792;29;20036;-73
2021/01/18 01:17:44;;;;;;;24.58;7.07;;;5.10;95.40;;;;;;4878454;29;20040;-73
2021/01/18 01:20:12;;;;;;;19.00;7.07;;;5.10;95.30;;;;;;4877209;29;20036;-72
2021/01/18 01:22:38;;;;;;;25.55;7.32;;;5.10;95.20;;;;;;4878099;29;20059;-72
2021/01/18 01:25:09;;;;;;;24.30;7.82;;;5.10;95.10;;;;;;4877577;29;20035;-72
2021/01/18 01:27:35;;;;;;;20.63;7.25;;;5.10;95.10;;;;;;4877612;29;20482;-73
2021/01/18 01:30:01;;;;;;;23.13;7.35;;;5.00;95.00;;;;;;4877927;29;20040;-73
2021/01/18 01:32:27;;;;;;;17.08;6.80;;;4.90;95.10;;;;;;4877161;29;20410;-73
2021/01/18 01:34:52;;;;;;;18.48;6.75;;;4.80;95.10;;;;;;4880638;29;20502;-73
2021/01/18 01:37:18;;;;;;;19.08;6.82;;;4.70;95.10;;;;;;4881875;29;20025;-73
2021/01/18 01:39:43;;;;;;;17.20;7.45;;;4.60;95.20;;;;;;4899661;29;20132;-72
2021/01/18 01:42:22;;;;;;;15.38;7.07;;;4.50;95.30;;;;;;4900119;29;20032;-72
2021/01/18 01:44:48;;;;;;;18.13;6.90;;;4.50;95.40;;;;;;4900129;29;20028;-73
2021/01/18 01:47:23;;;;;;;22.50;7.72;;;4.50;95.50;;;;;;4899184;29;20032;-73
2021/01/18 01:49:49;;;;;;;24.88;7.32;;;4.60;95.60;;;;;;4900113;29;20090;-72
2021/01/18 01:52:15;;;;;;;19.55;7.28;;;4.60;95.50;;;;;;4899522;29;20071;-72
2021/01/18 01:54:42;;;;;;;18.80;6.93;;;4.60;95.50;;;;;;4899233;29;20025;-73
2021/01/18 01:57:07;;;;;;;17.67;7.50;;;4.50;95.40;;;;;;4899641;29;20032;-72
2021/01/18 01:59:33;;;;;;;19.20;6.35;;;4.40;95.40;;;;;;4887542;29;20108;-73
2021/01/18 02:01:59;;;;;;;23.60;7.60;;;4.30;95.50;;;;;;4894745;29;20039;-73
2021/01/18 02:04:26;;;;;;;22.85;6.63;;;4.30;95.60;;;;;;4898265;29;20051;-73
2021/01/18 02:06:51;;;;;;;24.60;7.53;;;4.20;95.70;;;;;;4899045;29;20029;-73
2021/01/18 02:09:17;;;;;;;19.45;7.18;;;4.20;95.70;;;;;;4898236;29;20084;-74
2021/01/18 02:11:42;;;;;;;17.00;6.15;;;4.20;95.80;;;;;;4899726;29;20099;-72
2021/01/18 02:14:32;;;;;;;22.13;7.32;;;4.10;95.80;;;;;;4899120;29;20433;-73
2021/01/18 02:17:02;;;;;;;15.98;6.95;;;4.00;95.80;;;;;;4899544;29;20032;-73
2021/01/18 02:20:03;;;;;;;17.77;7.03;;;4.00;95.80;;;;;;4899375;29;20023;-73
2021/01/18 02:22:40;;;;;;;22.25;7.38;;;4.00;96.00;;;;;;4899186;29;20073;-73
2021/01/18 02:25:15;;;;;;;20.90;6.10;;;4.10;96.10;;;;;;4882382;29;20032;-73
2021/01/18 02:28:03;;;;;;;21.67;7.13;;;4.10;96.10;;;;;;4899683;29;20060;-73
2021/01/18 02:30:37;;;;;;;20.90;7.22;;;4.20;96.00;;;;;;4898773;29;20400;-72
2021/01/18 02:33:36;;;;;;;17.08;7.47;;;4.20;95.90;;;;;;4882206;29;20474;-73
2021/01/18 02:36:27;;;;;;;20.92;7.55;;;4.20;95.90;;;;;;4881748;29;20399;-73
2021/01/18 02:39:17;;;;;;;24.85;8.05;;;4.10;95.90;;;;;;4881985;29;20135;-73
2021/01/18 02:41:58;;;;;;;14.45;6.10;;;4.20;95.90;;;;;;4899450;29;20390;-73
2021/01/18 02:44:26;;;;;;;24.90;7.38;;;4.20;95.90;;;;;;4881339;29;20048;-73
2021/01/18 02:46:52;;;;;;;16.10;7.53;;;4.20;95.80;;;;;;4881421;29;20119;-73
2021/01/18 02:49:20;;;;;;;20.48;6.78;;;4.10;95.90;;;;;;4898798;29;20103;-73
2021/01/18 02:52:00;;;;;;;21.80;6.50;;;4.00;95.90;;;;;;4898461;29;20101;-73
2021/01/18 02:54:26;;;;;;;17.75;7.55;;;4.00;96.00;;;;;;4898731;29;20036;-74
2021/01/18 02:56:53;;;;;;;23.88;6.88;;;4.00;96.10;;;;;;4898497;29;20025;-74
2021/01/18 02:59:19;;;;;;;17.25;6.65;;;4.10;96.10;;;;;;4898581;29;20036;-74
2021/01/18 03:02:23;;;;;;;26.08;8.25;;;4.10;96.00;;;;;;4898987;29;20021;-74
2021/01/18 03:05:07;;;;;;;15.32;7.20;;;4.10;95.80;;;;;;4881329;29;20048;-74
2021/01/18 03:08:04;;;;;;;18.02;7.05;;;4.10;95.80;;;;;;4898998;29;20025;-73
2021/01/18 03:10:47;;;;;;;12.65;6.25;;;4.00;95.70;;;;;;4899121;29;20083;-74
2021/01/18 03:13:32;;;;;;;17.00;6.97;;;4.00;95.80;;;;;;4898155;29;20037;-74
2021/01/18 03:16:14;;;;;;;17.75;7.20;;;3.90;95.80;;;;;;4898547;29;20029;-73
2021/01/18 03:18:42;;;;;;;24.60;6.68;;;3.80;95.80;;;;;;4898230;29;20059;-74
2021/01/18 03:21:08;;;;;;;21.42;7.28;;;3.80;95.90;;;;;;4881426;29;20076;-72
2021/01/18 03:23:39;;;;;;;12.52;6.55;;;3.80;96.00;;;;;;4898390;29;20036;-73
2021/01/18 03:26:05;;;;;;;16.92;6.78;;;3.70;96.00;;;;;;4880744;29;20028;-73
2021/01/18 03:28:30;;;;;;;15.95;6.43;;;3.70;96.10;;;;;;4898553;29;20072;-73
2021/01/18 03:30:56;;;;;;;15.68;6.63;;;3.70;96.10;;;;;;4881379;29;20029;-74
2021/01/18 03:33:24;;;;;;;15.45;7.32;;;3.60;96.10;;;;;;4880571;29;20036;-73
2021/01/18 03:35:51;;;;;;;18.17;7.43;;;3.60;96.20;;;;;;4898267;29;20108;-73
2021/01/18 03:38:16;;;;;;;22.38;8.25;;;3.60;96.20;;;;;;4897591;29;20417;-73
2021/01/18 03:40:42;;;;;;;16.27;7.30;;;3.60;96.20;;;;;;4897775;29;20032;-73
2021/01/18 03:43:09;;;;;;;18.60;7.35;;;3.60;96.20;;;;;;4897772;29;20039;-73
2021/01/18 03:45:36;;;;;;;20.83;8.90;;;3.60;96.20;;;;;;4898138;29;20035;-73
2021/01/18 03:48:04;;;;;;;16.27;7.20;;;3.60;96.20;;;;;;4897208;29;20035;-73
2021/01/18 03:50:29;;;;;;;17.83;7.80;;;3.60;96.20;;;;;;4898042;29;20031;-73
2021/01/18 03:52:55;;;;;;;21.88;8.52;;;3.60;96.20;;;;;;4897286;29;20032;-73
2021/01/18 03:55:21;;;;;;;19.42;8.13;;;3.60;96.20;;;;;;4897766;29;20025;-71
2021/01/18 03:57:51;;;;;;;16.42;7.80;;;3.50;96.20;;;;;;4897697;29;20542;-71
2021/01/18 04:00:20;;;;;;;18.25;7.28;;;3.50;96.30;;;;;;4896640;29;20170;-72
2021/01/18 04:02:45;;;;;;;16.08;7.47;;;3.50;96.60;;;;;;4897813;29;20438;-72
2021/01/18 04:05:13;;;;;;;15.95;8.20;;;3.50;96.40;;;;;;4880463;29;20032;-72
2021/01/18 04:07:39;;;;;;;23.08;8.23;;;3.40;96.40;;;;;;4897124;29;20032;-72
2021/01/18 04:10:05;;;;;;;18.85;7.32;;;3.40;96.50;;;;;;4880503;29;20041;-72
2021/01/18 04:12:30;;;;;;;14.60;7.47;;;3.40;96.50;;;;;;4880811;29;20024;-72
2021/01/18 04:14:56;;;;;;;22.02;8.55;;;3.40;96.50;;;;;;4896781;29;20512;-72
2021/01/18 04:17:22;;;;;;;20.73;7.55;;;3.40;96.50;;;;;;4897484;29;20092;-72
2021/01/18 04:19:47;;;;;;;20.08;8.90;;;3.40;96.60;;;;;;4897439;29;20025;-72
2021/01/18 04:22:13;;;;;;;15.32;7.50;;;3.40;96.60;;;;;;4896445;29;20036;-72
2021/01/18 04:24:39;;;;;;;15.55;7.30;;;3.30;96.60;;;;;;4897341;29;20036;-72
2021/01/18 04:27:07;;;;;;;17.48;8.13;;;3.40;96.60;;;;;;4880190;29;20028;-72
2021/01/18 04:29:33;;;;;;;14.93;7.95;;;3.40;96.60;;;;;;4896755;29;20040;-73
2021/01/18 04:31:59;;;;;;;18.17;8.35;;;3.40;96.60;;;;;;4897152;29;20024;-72
2021/01/18 04:34:24;;;;;;;20.65;8.48;;;3.40;96.60;;;;;;4896925;29;20558;-72
2021/01/18 04:36:50;;;;;;;14.27;7.65;;;3.40;96.60;;;;;;4896740;29;20020;-72
2021/01/18 04:39:15;;;;;;;18.20;8.77;;;3.40;96.60;;;;;;4879773;29;20762;-73
2021/01/18 04:41:43;;;;;;;16.58;7.75;;;3.40;96.60;;;;;;4897263;29;20025;-73
2021/01/18 04:44:18;;;;;;;14.77;7.82;;;3.40;96.60;;;;;;4895894;29;20049;-73
2021/01/18 04:46:45;;;;;;;20.88;8.60;;;3.40;96.60;;;;;;4880798;29;20479;-73
2021/01/18 04:49:12;;;;;;;24.77;9.02;;;3.40;96.60;;;;;;4896333;29;20385;-73
2021/01/18 04:51:55;;;;;;;21.38;9.90;;;3.40;96.60;;;;;;4880362;29;20016;-72
2021/01/18 04:54:25;;;;;;;21.00;9.18;;;3.40;96.60;;;;;;4879981;29;20036;-72
2021/01/18 04:57:13;;;;;;;18.80;7.68;;;3.50;96.70;;;;;;4896394;29;20032;-72
2021/01/18 04:59:43;;;;;;;20.33;8.85;;;3.60;96.70;;;;;;4897279;29;20534;-72
2021/01/18 05:02:19;;;;;;;21.98;9.23;;;3.60;96.70;;;;;;4896628;29;20100;-73
2021/01/18 05:04:47;;;;;;;13.40;7.68;;;3.70;96.60;;;;;;4896646;29;20025;-72
2021/01/18 05:07:42;;;;;;;17.02;8.85;;;3.80;96.60;;;;;;4879617;29;20068;-72
2021/01/18 05:10:10;;;;;;;27.90;10.23;;;3.90;96.50;;;;;;4899709;29;20500;-73
2021/01/18 05:12:37;;;;;;;20.45;9.85;;;3.90;96.40;;;;;;4883333;29;20569;-72
2021/01/18 05:15:07;;;;;;;16.92;9.02;;;3.90;96.40;;;;;;4900396;29;20028;-72
2021/01/18 05:17:41;;;;;;;22.45;9.50;;;3.90;96.40;;;;;;4900383;29;20029;-72
2021/01/18 05:20:12;;;;;;;20.40;9.65;;;4.00;96.40;;;;;;4900078;29;20036;-72
2021/01/18 05:22:49;;;;;;;19.00;10.05;;;4.00;96.30;;;;;;4900643;29;20029;-73
2021/01/18 05:25:21;;;;;;;22.67;10.68;;;4.10;96.20;;;;;;4882579;29;20029;-73
2021/01/18 05:27:57;;;;;;;24.67;9.85;;;4.00;96.20;;;;;;4900426;29;20035;-72
2021/01/18 05:30:23;;;;;;;21.60;10.98;;;4.10;96.20;;;;;;4883344;29;20028;-73
2021/01/18 05:33:00;;;;;;;26.95;10.57;;;4.20;96.30;;;;;;4882908;29;20060;-73
2021/01/18 05:35:26;;;;;;;22.88;10.90;;;4.30;96.20;;;;;;4900203;29;20029;-73
2021/01/18 05:38:03;;;;;;;21.75;10.60;;;4.30;96.10;;;;;;4900153;29;20550;-74
2021/01/18 05:40:34;;;;;;;25.13;11.48;;;4.40;96.10;;;;;;4899621;29;20044;-73
2021/01/18 05:43:02;;;;;;;21.03;8.43;;;4.40;96.10;;;;;;4899986;29;20041;-73
2021/01/18 05:45:29;;;;;;;29.50;12.75;;;4.50;96.00;;;;;;4899556;29;20308;-73
2021/01/18 05:47:55;;;;;;;19.30;10.57;;;4.60;96.00;;;;;;4900128;29;20107;-73
2021/01/18 05:50:25;;;;;;;26.13;11.50;;;4.60;95.90;;;;;;4899872;29;20029;-73
2021/01/18 05:52:51;;;;;;;20.40;11.93;;;4.70;95.90;;;;;;4899431;29;20033;-73
2021/01/18 05:55:23;;;;;;;23.75;11.25;;;4.70;95.80;;;;;;4899550;29;20108;-73
2021/01/18 05:58:00;;;;;;;25.92;10.70;;;4.80;95.80;;;;;;4899990;29;20033;-73
2021/01/18 06:00:30;;;;;;;22.50;12.15;;;4.80;95.70;;;;;;4898916;29;20525;-73
2021/01/18 06:02:57;;;;;;;20.63;10.63;;;4.80;95.60;;;;;;4899763;29;20032;-73
2021/01/18 06:05:31;;;;;;;23.27;10.88;;;4.80;95.60;;;;;;4899203;29;20035;-73
2021/01/18 06:08:18;;;;;;;27.02;11.98;;;4.80;95.60;;;;;;4899007;29;20029;-73
2021/01/18 06:10:46;;;;;;;26.02;12.10;;;4.80;95.70;;;;;;4882935;29;20057;-73
2021/01/18 06:13:18;;;;;;;27.92;12.25;;;4.80;95.60;;;;;;4898335;29;20040;-73
2021/01/18 06:15:45;;;;;;;26.65;11.77;;;4.90;95.60;;;;;;4887473;29;20029;-73
2021/01/18 06:18:15;;;;;;;29.02;12.27;;;4.90;95.50;;;;;;4886125;29;20036;-73
2021/01/18 06:20:41;;;;;;;25.13;12.10;;;4.90;95.50;;;;;;4898954;29;20116;-73
2021/01/18 06:23:07;;;;;;;25.00;12.30;;;4.90;95.50;;;;;;4898907;29;20048;-73
2021/01/18 06:25:35;;;;;;;28.52;11.95;;;5.00;95.40;;;;;;4899562;29;20494;-73
2021/01/18 06:28:01;;;;;;;33.15;13.65;;;5.00;95.40;;;;;;4898819;29;20032;-72
2021/01/18 06:30:27;;;;;;;32.67;12.55;;;5.00;95.30;;;;;;4898659;29;20025;-72
2021/01/18 06:33:01;;;;;;;24.70;10.90;;;5.10;95.30;;;;;;4882408;29;20116;-73
2021/01/18 06:35:31;;;;;;;945.92;90.55;;;5.10;95.30;;;;;;4898516;29;20084;-73
2021/01/18 06:38:05;;;;;;;27.75;11.38;;;5.10;95.30;;;;;;4898834;29;20043;-74
2021/01/18 06:40:38;;;;;;;179.07;20.92;;;5.10;95.40;;;;;;4899561;29;20032;-73
2021/01/18 06:43:06;;;;;;;502.10;45.92;;;5.10;95.50;;;;;;4898017;29;20037;-72
2021/01/18 06:45:36;;;;;;;34.40;13.07;;;5.10;95.50;;;;;;4899299;29;20025;-74
2021/01/18 06:48:03;;;;;;;27.38;12.90;;;5.20;95.50;;;;;;4898922;29;20031;-73
2021/01/18 06:50:32;;;;;;;25.88;12.30;;;5.20;95.40;;;;;;4875682;29;20040;-71
2021/01/18 06:53:22;;;;;;;52.08;13.57;;;5.30;95.30;;;;;;4884630;29;20032;-71
2021/01/18 06:56:07;;;;;;;28.13;11.30;;;5.40;95.20;;;;;;4898115;29;20108;-71
2021/01/18 06:58:52;;;;;;;1017.88;73.55;;;5.40;95.10;;;;;;4898444;29;20108;-72
2021/01/18 07:01:27;;;;;;;21.15;10.75;;;5.50;95.00;;;;;;4898336;29;20111;-70
2021/01/18 07:04:14;;;;;;;30.48;11.68;;;5.50;94.90;;;;;;4897613;29;20062;-71
2021/01/18 07:06:56;;;;;;;30.00;12.65;;;5.60;94.70;;;;;;4898316;29;20588;-71
2021/01/18 07:09:26;;;;;;;32.03;12.40;;;5.60;94.60;;;;;;4897855;29;20101;-70
2021/01/18 07:12:01;;;;;;;27.75;12.50;;;5.60;94.60;;;;;;4897911;29;20029;-70
2021/01/18 07:14:29;;;;;;;29.83;11.77;;;5.60;94.50;;;;;;4898153;29;20438;-72
2021/01/18 07:17:03;;;;;;;27.52;11.73;;;5.60;94.50;;;;;;4880751;29;20082;-74
2021/01/18 07:19:45;;;;;;;28.88;11.55;;;5.60;94.40;;;;;;4897814;29;20043;-72
2021/01/18 07:22:32;;;;;;;;;;;5.60;94.40;;;;;;4891827;29;20021;-75
2021/01/18 07:24:59;;;;;;;30.02;11.82;;;5.70;94.40;;;;;;4897476;29;19911;-73
2021/01/18 07:27:25;;;;;;;23.65;11.45;;;5.70;94.20;;;;;;4898371;29;20036;-78
2021/01/18 07:29:51;;;;;;;34.10;12.18;;;5.80;94.30;;;;;;4897874;29;20032;-70
2021/01/18 07:32:20;;;;;;;29.50;13.75;;;5.80;94.30;;;;;;4896901;29;20040;-79
2021/01/18 14:47:58;;;;;;;15.93;4.28;;;7.40;92.70;;;;;;5317270;23;20057;-72
2021/01/18 14:50:24;;;;;;;19.00;5.30;;;7.40;92.90;;;;;;4895696;29;20366;-70
2021/01/18 14:52:49;;;;;;;15.63;4.40;;;7.40;93.00;;;;;;4898613;29;20549;-69
2021/01/18 14:55:15;;;;;;;16.85;4.45;;;7.40;92.90;;;;;;4897307;29;20499;-68
2021/01/18 14:57:45;;;;;;;15.95;4.80;;;7.40;93.00;;;;;;4898391;29;20032;-69
2021/01/18 15:00:11;;;;;;;16.15;4.57;;;7.50;93.00;;;;;;4897073;29;20032;-69
2021/01/18 15:02:39;;;;;;;15.32;4.13;;;7.50;93.00;;;;;;4897931;29;20072;-69
2021/01/18 15:05:05;;;;;;;15.63;4.53;;;7.50;93.00;;;;;;4898869;29;20552;-69
2021/01/18 15:07:35;;;;;;;14.07;4.05;;;7.60;92.90;;;;;;4881272;29;20104;-69
2021/01/18 15:10:01;;;;;;;14.55;4.32;;;7.60;92.80;;;;;;4907489;29;20063;-77
2021/01/18 15:12:27;;;;;;;15.38;5.10;;;7.60;92.70;;;;;;4916511;29;20031;-72
2021/01/18 15:14:53;;;;;;;16.63;4.32;;;7.70;92.60;;;;;;4915884;29;20032;-72
2021/01/18 15:17:18;;;;;;;15.25;4.35;;;7.70;92.60;;;;;;4897845;29;20029;-71
2021/01/18 15:19:44;;;;;;;16.88;4.53;;;7.70;92.60;;;;;;4912738;29;20380;-68
2021/01/18 15:22:10;;;;;;;15.32;4.65;;;7.60;92.70;;;;;;4897594;29;20500;-68
2021/01/18 15:24:36;;;;;;;11.00;3.72;;;7.60;92.80;;;;;;4907287;29;20040;-71
2021/01/18 15:27:03;;;;;;;9.50;3.78;;;7.60;92.80;;;;;;4916624;29;20023;-70
2021/01/18 15:29:28;;;;;;;11.82;3.88;;;7.60;92.80;;;;;;4903875;29;20051;-70
2021/01/18 15:31:55;;;;;;;11.98;3.92;;;7.60;92.80;;;;;;4908836;29;20477;-69
2021/01/18 15:34:21;;;;;;;17.55;4.65;;;7.50;92.70;;;;;;4879775;29;20029;-70
2021/01/18 15:36:53;;;;;;;11.98;4.45;;;7.50;92.80;;;;;;4896996;29;20100;-71
2021/01/18 15:39:21;;;;;;;11.32;4.68;;;7.50;92.80;;;;;;4893428;29;20043;-70
2021/01/18 15:41:48;;;;;;;11.00;4.50;;;7.50;92.70;;;;;;4877430;29;20388;-69
2021/01/18 15:44:14;;;;;;;10.35;3.65;;;7.50;92.70;;;;;;4907328;29;20044;-71
2021/01/18 15:46:41;;;;;;;7.32;3.10;;;7.50;92.70;;;;;;4896191;29;20028;-67
2021/01/18 15:49:07;;;;;;;10.27;3.22;;;7.40;92.60;;;;;;4912250;29;20052;-70
2021/01/18 15:51:32;;;;;;;10.30;4.30;;;7.40;92.50;;;;;;4912026;29;20666;-73
2021/01/18 15:53:58;;;;;;;14.70;4.55;;;7.30;92.50;;;;;;4912527;29;20035;-75
2021/01/18 15:56:25;;;;;;;14.07;4.97;;;7.30;92.90;;;;;;4911126;29;20032;-67
2021/01/18 15:58:50;;;;;;;18.27;5.65;;;7.30;93.00;;;;;;4905527;29;20068;-71
2021/01/18 16:01:17;;;;;;;17.23;5.35;;;7.40;93.00;;;;;;4907657;29;20111;-71
2021/01/18 16:03:43;;;;;;;16.30;5.78;;;7.50;93.00;;;;;;4895579;29;20041;-72
2021/01/18 16:06:08;;;;;;;15.45;5.40;;;7.50;92.90;;;;;;4893890;29;20036;-69
2021/01/18 16:08:34;;;;;;;16.83;5.78;;;7.60;92.90;;;;;;4904446;29;20110;-72
2021/01/18 16:11:00;;;;;;;17.00;5.32;;;7.60;92.80;;;;;;4896127;29;20033;-74
2021/01/18 16:13:25;;;;;;;16.92;5.80;;;7.60;92.70;;;;;;4893655;29;20035;-73
2021/01/18 16:15:51;;;;;;;15.18;6.13;;;7.60;92.80;;;;;;4887573;29;20377;-70
2021/01/18 16:18:16;;;;;;;18.77;6.38;;;7.60;92.70;;;;;;4900859;29;20031;-73
2021/01/18 16:20:42;;;;;;;18.77;6.90;;;7.60;92.70;;;;;;4880083;29;20127;-69
2021/01/18 16:23:07;;;;;;;19.30;6.93;;;7.60;92.70;;;;;;4876274;29;20024;-71
2021/01/18 16:25:33;;;;;;;12.20;7.00;;;7.60;92.80;;;;;;4892845;29;20055;-73
2021/01/18 16:27:58;;;;;;;13.27;6.32;;;7.60;93.10;;;;;;4897474;29;20032;-68
2021/01/18 16:30:24;;;;;;;19.98;7.97;;;7.60;93.10;;;;;;4910291;29;20024;-75
2021/01/18 16:32:50;;;;;;;23.00;7.22;;;7.50;93.10;;;;;;4898063;29;20528;-73
2021/01/18 16:35:15;;;;;;;17.30;7.18;;;7.60;93.10;;;;;;4901644;29;20080;-77
2021/01/18 16:37:43;;;;;;;12.45;7.38;;;7.60;93.10;;;;;;4893217;29;20097;-75
2021/01/18 16:40:13;;;;;;;15.98;7.32;;;7.60;93.00;;;;;;4893411;29;20036;-75
2021/01/18 16:42:39;;;;;;;13.18;7.80;;;7.70;93.00;;;;;;4892851;29;20583;-71
2021/01/18 16:45:06;;;;;;;14.45;7.80;;;7.70;93.00;;;;;;4891731;29;20032;-74
2021/01/18 16:47:38;;;;;;;17.10;9.45;;;7.80;93.00;;;;;;4896423;29;20099;-73
2021/01/18 16:50:04;;;;;;;22.45;9.95;;;7.70;93.00;;;;;;4911867;29;20043;-68
2021/01/18 16:52:29;;;;;;;16.10;8.23;;;7.80;92.90;;;;;;4907052;29;20037;-76
2021/01/18 16:54:55;;;;;;;19.80;8.50;;;7.70;92.90;;;;;;4893002;29;20522;-79
2021/01/18 16:57:20;;;;;;;19.67;10.35;;;7.80;93.00;;;;;;4876664;29;20043;-67
2021/01/18 16:59:46;;;;;;;16.45;8.52;;;7.80;93.10;;;;;;4893654;29;20453;-66
2021/01/18 17:02:11;;;;;;;27.58;9.25;;;7.80;93.10;;;;;;4892301;29;20508;-69
2021/01/18 17:04:38;;;;;;;17.80;9.40;;;7.90;93.10;;;;;;4894041;29;20469;-72
2021/01/18 17:07:03;;;;;;;22.27;9.95;;;7.90;93.10;;;;;;4891270;29;20041;-66
2021/01/18 17:09:29;;;;;;;17.65;8.90;;;7.90;93.00;;;;;;4877909;29;20033;-64
2021/01/18 17:11:56;;;;;;;16.73;8.43;;;8.00;92.80;;;;;;4879230;29;20029;-72
2021/01/18 17:14:24;;;;;;;26.05;9.85;;;7.90;92.70;;;;;;4877308;29;20068;-67
2021/01/18 17:16:54;;;;;;;17.70;9.20;;;7.90;92.70;;;;;;4878633;29;20051;-71
2021/01/18 17:19:20;;;;;;;20.25;9.93;;;7.90;92.70;;;;;;4878172;29;20033;-72
2021/01/18 17:21:54;;;;;;;19.80;9.25;;;7.90;92.70;;;;;;4877902;29;20029;-72
2021/01/18 17:24:20;;;;;;;20.10;9.88;;;7.80;92.70;;;;;;4877700;29;20048;-71
2021/01/18 17:26:47;;;;;;;23.48;10.45;;;7.70;92.70;;;;;;4879063;29;20053;-73
2021/01/18 17:29:12;;;;;;;24.55;10.00;;;7.70;92.70;;;;;;4877114;29;20029;-68
2021/01/18 17:31:38;;;;;;;18.58;9.38;;;7.70;92.80;;;;;;4891398;29;20132;-71
2021/01/18 17:34:04;;;;;;;23.42;8.88;;;7.70;92.80;;;;;;4896338;29;20044;-68
2021/01/18 17:36:30;;;;;;;19.70;10.27;;;7.60;92.80;;;;;;4895160;29;20033;-76
2021/01/18 17:38:56;;;;;;;17.20;9.82;;;7.50;93.10;;;;;;4880765;29;20035;-73
2021/01/18 17:41:23;;;;;;;18.08;9.75;;;7.50;93.10;;;;;;4878121;29;20029;-67
2021/01/18 17:43:49;;;;;;;30.63;10.63;;;7.50;93.10;;;;;;4892708;29;20043;-73
2021/01/18 17:46:14;;;;;;;20.50;9.48;;;7.50;93.00;;;;;;4887588;29;20612;-77
2021/01/18 17:48:44;;;;;;;15.00;8.20;;;7.50;93.10;;;;;;4896817;29;20045;-75
2021/01/18 17:51:10;;;;;;;15.95;9.05;;;7.40;93.30;;;;;;4897484;29;20029;-71
2021/01/18 17:53:36;;;;;;;14.88;8.63;;;7.40;93.30;;;;;;4897530;29;20068;-75
2021/01/18 17:56:02;;;;;;;18.85;10.00;;;7.40;93.20;;;;;;4896577;29;20025;-75
2021/01/18 17:58:27;;;;;;;21.02;10.38;;;7.40;93.20;;;;;;4895679;29;20036;-76
2021/01/18 18:00:53;;;;;;;21.15;11.43;;;7.40;93.20;;;;;;4903155;29;20038;-75
2021/01/18 18:03:18;;;;;;;16.00;9.52;;;7.40;93.20;;;;;;4895375;29;20048;-73
2021/01/18 18:05:45;;;;;;;16.52;9.98;;;7.40;93.10;;;;;;4904763;29;20055;-71
2021/01/18 18:08:10;;;;;;;20.73;10.35;;;7.40;93.10;;;;;;4914738;29;20473;-73
2021/01/18 18:10:36;;;;;;;20.65;11.27;;;7.40;93.40;;;;;;4914545;29;20129;-73
2021/01/18 18:13:02;;;;;;;22.45;12.30;;;7.40;93.40;;;;;;4914475;29;20087;-74
2021/01/18 18:15:27;;;;;;;17.38;10.88;;;7.40;93.40;;;;;;4895344;29;20028;-70
2021/01/18 18:17:54;;;;;;;19.33;12.02;;;7.50;93.40;;;;;;4901009;29;20513;-73
2021/01/18 18:20:20;;;;;;;18.55;11.35;;;7.60;93.40;;;;;;4894297;29;20064;-72
2021/01/18 18:22:47;;;;;;;18.48;10.70;;;7.70;93.30;;;;;;4894639;29;20485;-73
2021/01/18 18:25:13;;;;;;;16.25;10.38;;;7.70;93.20;;;;;;4912684;29;20078;-73
2021/01/18 18:27:40;;;;;;;17.88;11.15;;;7.70;93.10;;;;;;4914727;29;20425;-74
2021/01/18 18:30:09;;;;;;;20.23;12.82;;;7.80;93.00;;;;;;4914291;29;20032;-75
2021/01/18 18:32:35;;;;;;;20.98;11.40;;;7.80;93.00;;;;;;4914019;29;20067;-75
2021/01/18 18:35:01;;;;;;;14.85;11.65;;;7.80;93.00;;;;;;4912987;29;20064;-69
2021/01/18 18:37:26;;;;;;;26.35;11.07;;;7.70;92.90;;;;;;4914149;29;20091;-71
2021/01/18 18:39:52;;;;;;;17.88;11.68;;;7.80;93.00;;;;;;4896895;29;20092;-71
2021/01/18 18:42:18;;;;;;;17.23;12.20;;;7.70;93.00;;;;;;4911804;29;20088;-72
2021/01/18 18:44:43;;;;;;;16.55;10.98;;;7.70;93.00;;;;;;4895934;29;20037;-73
2021/01/18 18:47:09;;;;;;;22.00;11.25;;;7.70;93.00;;;;;;4894437;29;20606;-72
2021/01/18 18:49:35;;;;;;;19.70;11.85;;;7.70;93.10;;;;;;4904166;29;20044;-72
2021/01/18 18:52:03;;;;;;;16.20;10.63;;;7.70;93.20;;;;;;4897225;29;20060;-71
2021/01/18 18:54:29;;;;;;;22.02;11.18;;;7.70;93.10;;;;;;4894556;29;20028;-69
2021/01/18 18:56:59;;;;;;;15.20;9.88;;;7.70;93.10;;;;;;4895309;29;20036;-70
2021/01/18 18:59:30;;;;;;;18.58;9.95;;;7.70;92.90;;;;;;4894927;29;20073;-71
2021/01/18 19:01:58;;;;;;;15.13;10.52;;;7.70;92.90;;;;;;4883810;29;20032;-71
2021/01/18 19:04:25;;;;;;;19.27;11.20;;;7.70;92.90;;;;;;4894297;29;20238;-69
2021/01/18 19:06:51;;;;;;;15.43;11.32;;;7.70;92.90;;;;;;4877661;29;20017;-71
2021/01/18 19:09:18;;;;;;;14.95;11.52;;;7.70;92.90;;;;;;4894422;29;20381;-71
2021/01/18 19:11:45;;;;;;;19.95;12.02;;;7.70;92.80;;;;;;4895349;29;20378;-71
2021/01/18 19:14:11;;;;;;;14.77;11.00;;;7.80;92.80;;;;;;4876952;29;20036;-70
2021/01/18 19:16:36;;;;;;;18.08;11.07;;;7.90;92.80;;;;;;4878285;29;20749;-69
2021/01/18 19:19:02;;;;;;;25.10;13.32;;;7.90;92.70;;;;;;4887109;29;20037;-69
2021/01/18 19:21:27;;;;;;;20.77;12.93;;;7.90;92.70;;;;;;4892502;29;20067;-71
2021/01/18 19:23:53;;;;;;;19.85;13.95;;;8.00;92.70;;;;;;4895405;29;20497;-71
2021/01/18 19:26:20;;;;;;;20.50;14.02;;;7.90;92.60;;;;;;4894993;29;20033;-72
2021/01/18 19:28:46;;;;;;;17.40;13.43;;;7.90;92.60;;;;;;4900352;29;20025;-71
2021/01/18 19:31:21;;;;;;;19.67;14.07;;;7.90;92.70;;;;;;4894700;29;20036;-72
2021/01/18 19:33:47;;;;;;;18.55;14.10;;;7.80;92.70;;;;;;4907000;29;20430;-73
2021/01/18 19:36:19;;;;;;;17.15;12.82;;;7.90;92.70;;;;;;4894166;29;20099;-73
2021/01/18 19:38:44;;;;;;;17.73;12.32;;;7.80;92.70;;;;;;4883771;29;20477;-72
2021/01/18 19:41:10;;;;;;;17.70;12.10;;;7.80;92.60;;;;;;4894396;29;20040;-72
2021/01/18 19:43:36;;;;;;;16.67;12.52;;;7.70;92.60;;;;;;4893449;29;20065;-72
2021/01/18 19:46:01;;;;;;;14.57;12.55;;;7.70;92.70;;;;;;4894337;29;20032;-72
2021/01/18 19:48:27;;;;;;;17.58;13.80;;;7.60;92.80;;;;;;4876862;29;20164;-71
2021/01/18 19:50:54;;;;;;;19.15;13.63;;;7.60;92.80;;;;;;4876887;29;20772;-71
2021/01/18 19:53:19;;;;;;;16.77;12.45;;;7.70;92.90;;;;;;4880636;29;20206;-72
2021/01/18 19:55:45;;;;;;;22.15;14.65;;;7.70;92.80;;;;;;4912806;29;20118;-71
2021/01/18 19:58:11;;;;;;;21.55;15.27;;;7.70;92.80;;;;;;4890068;29;20024;-74
2021/01/18 20:00:37;;;;;;;21.00;15.70;;;7.70;92.80;;;;;;4894868;29;20028;-72
2021/01/18 20:03:03;;;;;;;19.50;15.35;;;7.70;92.70;;;;;;4910049;29;20143;-70
2021/01/18 20:05:28;;;;;;;19.85;15.18;;;7.70;92.70;;;;;;4895443;29;20032;-72